Time;durP1;ratioP1;P1;durP2;ratioP2;P2;SDS_P1;SDS_P2;PMS_P1;PMS_P2;Temp;Humidity;BMP_temperature;BMP_pressure;BME280_temperature;BME280_humidity;BME280_pressure;Samples;Min_cycle;Max_cycle;Signal;HPM_P1;HPM_P2
2021/10/10 00:01:01;;;;;;;12.93;7.80;;;;;;;;;;5032281;28;20057;-90
2021/10/10 00:03:27;;;;;;;11.63;7.10;;;;;;;;;;5031153;28;20041;-91
2021/10/10 00:05:54;;;;;;;15.80;7.60;;;;;;;;;;5015012;28;20045;-91
2021/10/10 00:08:21;;;;;;;14.82;6.82;;;;;;;;;;5031060;28;20054;-91
2021/10/10 00:10:50;;;;;;;16.85;6.90;;;;;;;;;;5031355;28;20398;-90
2021/10/10 00:13:17;;;;;;;11.82;6.72;;;;;;;;;;5032837;28;20049;-90
2021/10/10 00:15:44;;;;;;;12.65;7.22;;;;;;;;;;5031343;28;20061;-91
2021/10/10 00:18:11;;;;;;;15.35;8.23;;;;;;;;;;5030600;28;20069;-90
2021/10/10 00:20:38;;;;;;;14.27;6.97;;;;;;;;;;5031231;28;20049;-90
2021/10/10 00:23:05;;;;;;;16.30;7.88;;;;;;;;;;5033766;28;20041;-90
2021/10/10 00:25:32;;;;;;;13.85;8.18;;;;;;;;;;5018376;28;20402;-90
2021/10/10 00:28:01;;;;;;;16.55;8.32;;;;;;;;;;5068322;28;20045;-91
2021/10/10 00:30:27;;;;;;;12.63;7.80;;;;;;;;;;5018721;28;20049;-91
2021/10/10 00:32:56;;;;;;;14.55;8.05;;;;;;;;;;5036310;28;20057;-90
2021/10/10 00:35:24;;;;;;;15.02;8.82;;;;;;;;;;5034540;28;20310;-90
2021/10/10 00:37:51;;;;;;;12.85;7.53;;;;;;;;;;5018487;28;20226;-90
2021/10/10 00:40:18;;;;;;;11.23;7.40;;;;;;;;;;5034610;28;20091;-90
2021/10/10 00:42:45;;;;;;;13.23;8.70;;;;;;;;;;5018203;28;20107;-89
2021/10/10 00:45:14;;;;;;;14.15;8.25;;;;;;;;;;5034554;28;20045;-90
2021/10/10 00:47:43;;;;;;;15.25;7.78;;;;;;;;;;5033964;28;20494;-90
2021/10/10 00:50:11;;;;;;;12.65;7.68;;;;;;;;;;5033666;28;20041;-89
2021/10/10 00:52:41;;;;;;;13.27;7.53;;;;;;;;;;5017873;28;20115;-89
2021/10/10 00:55:09;;;;;;;14.00;7.47;;;;;;;;;;5034661;28;20107;-89
2021/10/10 00:57:38;;;;;;;14.15;8.60;;;;;;;;;;5034358;28;20041;-89
2021/10/10 01:00:08;;;;;;;15.30;8.25;;;;;;;;;;5035508;28;20041;-89
2021/10/10 01:02:37;;;;;;;14.85;8.32;;;;;;;;;;5035110;28;20116;-89
2021/10/10 01:05:05;;;;;;;13.98;8.20;;;;;;;;;;5057709;23;20045;-84
2021/10/10 01:07:32;;;;;;;17.42;8.07;;;;;;;;;;5019119;28;20053;-85
2021/10/10 01:09:59;;;;;;;13.65;7.78;;;;;;;;;;5019517;28;20045;-83
2021/10/10 01:12:26;;;;;;;14.32;7.55;;;;;;;;;;5019855;28;20042;-82
2021/10/10 01:14:53;;;;;;;16.73;8.23;;;;;;;;;;5017236;28;20406;-85
2021/10/10 01:17:21;;;;;;;12.80;7.45;;;;;;;;;;5020251;28;20128;-87
2021/10/10 01:19:50;;;;;;;16.60;7.45;;;;;;;;;;5021702;28;20085;-83
2021/10/10 01:22:18;;;;;;;13.15;7.30;;;;;;;;;;5021715;28;20045;-85
2021/10/10 01:24:44;;;;;;;15.23;6.38;;;;;;;;;;5020532;28;20118;-84
2021/10/10 01:27:12;;;;;;;13.93;7.38;;;;;;;;;;5020548;28;20426;-83
2021/10/10 01:29:38;;;;;;;12.48;7.32;;;;;;;;;;5020397;28;20088;-83
2021/10/10 01:32:05;;;;;;;12.18;6.45;;;;;;;;;;5020717;28;20433;-87
2021/10/10 01:34:33;;;;;;;15.27;7.57;;;;;;;;;;5020324;28;20077;-84
2021/10/10 01:37:00;;;;;;;11.18;6.15;;;;;;;;;;5021864;28;20046;-85
2021/10/10 01:39:29;;;;;;;10.98;6.20;;;;;;;;;;5021462;28;20053;-85
2021/10/10 01:41:55;;;;;;;15.02;6.72;;;;;;;;;;5025860;28;20069;-85
2021/10/10 01:44:22;;;;;;;14.57;7.35;;;;;;;;;;5008131;28;20050;-84
2021/10/10 01:46:49;;;;;;;13.85;6.88;;;;;;;;;;5009958;28;20042;-85
2021/10/10 01:49:15;;;;;;;13.93;6.40;;;;;;;;;;5018396;28;20046;-84
2021/10/10 01:51:44;;;;;;;11.60;6.35;;;;;;;;;;5016616;28;20042;-84
2021/10/10 01:54:11;;;;;;;11.15;6.47;;;;;;;;;;5000449;28;20050;-84
2021/10/10 01:56:39;;;;;;;16.05;7.25;;;;;;;;;;5017109;28;20076;-84
2021/10/10 01:59:06;;;;;;;12.40;7.30;;;;;;;;;;4997577;28;20100;-84
2021/10/10 02:01:33;;;;;;;12.88;6.22;;;;;;;;;;4982634;28;20050;-83
2021/10/10 02:03:59;;;;;;;13.73;6.82;;;;;;;;;;5019437;28;20057;-85
2021/10/10 02:06:26;;;;;;;10.40;7.45;;;;;;;;;;5018115;28;20088;-84
2021/10/10 02:08:53;;;;;;;13.05;6.45;;;;;;;;;;5016889;28;20053;-85
2021/10/10 02:11:20;;;;;;;11.25;6.25;;;;;;;;;;5017135;28;20057;-85
2021/10/10 02:13:49;;;;;;;10.80;6.70;;;;;;;;;;5018386;28;20050;-84
2021/10/10 02:16:16;;;;;;;10.68;6.28;;;;;;;;;;5018323;28;20049;-84
2021/10/10 02:18:43;;;;;;;12.55;6.25;;;;;;;;;;5032855;28;20045;-84
2021/10/10 02:21:10;;;;;;;13.32;7.00;;;;;;;;;;5015942;28;20053;-84
2021/10/10 02:23:37;;;;;;;12.38;6.53;;;;;;;;;;5017338;28;20053;-84
2021/10/10 02:26:03;;;;;;;12.85;6.45;;;;;;;;;;5017009;28;20061;-84
2021/10/10 02:28:30;;;;;;;15.10;6.63;;;;;;;;;;5017943;28;20465;-84
2021/10/10 02:30:58;;;;;;;12.93;6.28;;;;;;;;;;5000138;28;20459;-84
2021/10/10 02:33:25;;;;;;;11.02;6.75;;;;;;;;;;5017591;28;20042;-84
2021/10/10 02:35:51;;;;;;;10.95;6.18;;;;;;;;;;5014677;28;20120;-84
2021/10/10 02:38:19;;;;;;;14.02;6.78;;;;;;;;;;5016192;28;20049;-84
2021/10/10 02:40:46;;;;;;;10.50;6.20;;;;;;;;;;5016083;28;20037;-84
2021/10/10 02:43:13;;;;;;;10.20;5.97;;;;;;;;;;4999541;28;20502;-84
2021/10/10 02:45:41;;;;;;;11.20;6.45;;;;;;;;;;5015943;28;20053;-84
2021/10/10 02:48:09;;;;;;;17.92;6.75;;;;;;;;;;4983342;28;20085;-83
2021/10/10 02:50:37;;;;;;;15.27;7.65;;;;;;;;;;5017550;28;20042;-84
2021/10/10 02:53:03;;;;;;;13.85;7.32;;;;;;;;;;5015962;28;20077;-84
2021/10/10 02:55:30;;;;;;;13.07;7.20;;;;;;;;;;5017484;28;20449;-84
2021/10/10 02:57:56;;;;;;;12.80;7.20;;;;;;;;;;5016453;28;20380;-84
2021/10/10 03:00:23;;;;;;;13.43;7.95;;;;;;;;;;4999182;28;20112;-84
2021/10/10 03:02:50;;;;;;;16.58;8.05;;;;;;;;;;5016613;28;20042;-84
2021/10/10 03:05:18;;;;;;;15.57;8.57;;;;;;;;;;5015115;28;20045;-84
2021/10/10 03:07:44;;;;;;;14.18;8.00;;;;;;;;;;5015812;28;20096;-84
2021/10/10 03:10:11;;;;;;;14.73;7.63;;;;;;;;;;5015726;28;20067;-84
2021/10/10 03:12:38;;;;;;;15.43;8.10;;;;;;;;;;5016317;28;20145;-83
2021/10/10 03:15:06;;;;;;;18.27;9.02;;;;;;;;;;5015111;28;20041;-83
2021/10/10 03:17:33;;;;;;;14.15;8.18;;;;;;;;;;5014547;28;20103;-83
2021/10/10 03:20:00;;;;;;;14.65;7.68;;;;;;;;;;4998557;28;20153;-83
2021/10/10 03:22:28;;;;;;;13.45;7.63;;;;;;;;;;5014937;28;20053;-84
2021/10/10 03:24:55;;;;;;;14.65;7.47;;;;;;;;;;5015502;28;20038;-83
2021/10/10 03:27:26;;;;;;;16.02;8.55;;;;;;;;;;5016905;28;20052;-84
2021/10/10 03:29:54;;;;;;;13.20;8.75;;;;;;;;;;5016676;28;20041;-83
2021/10/10 03:32:20;;;;;;;15.88;7.88;;;;;;;;;;5016894;28;20441;-84
2021/10/10 03:34:48;;;;;;;14.32;7.55;;;;;;;;;;5017030;28;20057;-84
2021/10/10 03:37:18;;;;;;;12.27;7.38;;;;;;;;;;5015804;28;20041;-84
2021/10/10 03:39:47;;;;;;;15.55;7.93;;;;;;;;;;5015262;28;20336;-84
2021/10/10 03:42:14;;;;;;;16.45;8.77;;;;;;;;;;5015805;28;20046;-84
2021/10/10 03:44:41;;;;;;;16.10;7.45;;;;;;;;;;4998350;28;20516;-83
2021/10/10 03:47:08;;;;;;;15.30;8.05;;;;;;;;;;5015914;28;20364;-83
2021/10/10 03:49:34;;;;;;;13.90;7.85;;;;;;;;;;5015076;28;20100;-83
2021/10/10 03:52:01;;;;;;;15.38;8.05;;;;;;;;;;5014310;28;20042;-84
2021/10/10 03:57:22;;;;;;;14.88;8.48;;;;;;;;;;5016166;28;20112;-84
2021/10/10 03:59:54;;;;;;;17.42;8.40;;;;;;;;;;5020923;28;20101;-84
2021/10/10 04:02:20;;;;;;;13.90;7.68;;;;;;;;;;5022150;28;20392;-84
2021/10/10 04:04:47;;;;;;;16.38;7.45;;;;;;;;;;5024226;28;20053;-84
2021/10/10 04:07:15;;;;;;;16.88;8.70;;;;;;;;;;5026009;28;20064;-84
2021/10/10 04:09:42;;;;;;;13.00;7.97;;;;;;;;;;5028083;28;20049;-84
2021/10/10 04:12:09;;;;;;;14.40;7.72;;;;;;;;;;5029046;28;20046;-85
2021/10/10 04:14:38;;;;;;;15.95;7.68;;;;;;;;;;5009803;28;20053;-84
2021/10/10 04:17:04;;;;;;;12.57;7.38;;;;;;;;;;5023256;28;20050;-83
2021/10/10 04:19:33;;;;;;;16.20;8.60;;;;;;;;;;5021302;28;20364;-83
2021/10/10 04:22:00;;;;;;;16.25;8.65;;;;;;;;;;5021293;28;20076;-83
2021/10/10 04:24:26;;;;;;;17.50;8.52;;;;;;;;;;5019279;28;20038;-83
2021/10/10 04:26:54;;;;;;;17.42;8.98;;;;;;;;;;5019109;28;20050;-84
2021/10/10 04:29:23;;;;;;;18.77;10.85;;;;;;;;;;5020397;28;20046;-83
2021/10/10 04:31:51;;;;;;;16.17;8.93;;;;;;;;;;5019772;28;20053;-83
2021/10/10 04:34:17;;;;;;;15.45;8.20;;;;;;;;;;5020172;28;20424;-83
2021/10/10 04:36:44;;;;;;;16.70;8.68;;;;;;;;;;5019224;28;20045;-83
2021/10/10 04:39:12;;;;;;;14.82;8.13;;;;;;;;;;5019681;28;20046;-83
2021/10/10 04:41:39;;;;;;;17.58;8.95;;;;;;;;;;5019410;28;20058;-83
2021/10/10 04:44:05;;;;;;;14.60;8.13;;;;;;;;;;5019685;28;20049;-83
2021/10/10 04:46:33;;;;;;;18.85;9.23;;;;;;;;;;5020455;28;20048;-83
2021/10/10 04:49:03;;;;;;;15.05;8.63;;;;;;;;;;5020311;28;20042;-84
2021/10/10 04:51:31;;;;;;;19.15;10.63;;;;;;;;;;5020473;28;20073;-82
2021/10/10 04:53:58;;;;;;;16.83;9.40;;;;;;;;;;5020671;28;20045;-83
2021/10/10 04:56:25;;;;;;;15.98;8.75;;;;;;;;;;5004518;28;20049;-84
2021/10/10 04:58:52;;;;;;;18.15;9.13;;;;;;;;;;5022950;28;20049;-83
2021/10/10 05:01:19;;;;;;;16.45;9.27;;;;;;;;;;5024002;28;20045;-83
2021/10/10 05:03:45;;;;;;;19.30;9.10;;;;;;;;;;5023452;28;20367;-83
2021/10/10 05:06:13;;;;;;;15.13;8.27;;;;;;;;;;5020448;28;20042;-83
2021/10/10 05:08:40;;;;;;;17.98;9.05;;;;;;;;;;5020386;28;20104;-84
2021/10/10 05:11:07;;;;;;;16.80;7.90;;;;;;;;;;5020873;28;20053;-83
2021/10/10 05:13:36;;;;;;;14.48;8.27;;;;;;;;;;5022234;28;20034;-83
2021/10/10 05:16:03;;;;;;;15.80;8.32;;;;;;;;;;5022133;28;20050;-83
2021/10/10 05:18:30;;;;;;;17.27;9.57;;;;;;;;;;5022774;28;20050;-84
2021/10/10 05:20:57;;;;;;;15.52;8.45;;;;;;;;;;5022170;28;20034;-82
2021/10/10 05:23:25;;;;;;;16.80;8.30;;;;;;;;;;5016619;28;20097;-82
2021/10/10 05:25:51;;;;;;;23.02;9.90;;;;;;;;;;5017836;28;20041;-82
2021/10/10 05:28:18;;;;;;;23.27;9.35;;;;;;;;;;5016550;28;20049;-83
2021/10/10 05:30:45;;;;;;;18.95;8.88;;;;;;;;;;5017572;28;20050;-83
2021/10/10 05:33:11;;;;;;;25.30;8.32;;;;;;;;;;5014795;28;20505;-83
2021/10/10 05:35:38;;;;;;;18.00;8.27;;;;;;;;;;5016661;28;20566;-83
2021/10/10 05:38:05;;;;;;;13.85;8.10;;;;;;;;;;5015585;28;20478;-83
2021/10/10 05:40:34;;;;;;;19.20;9.02;;;;;;;;;;5017043;28;20038;-82
2021/10/10 05:43:01;;;;;;;18.83;9.48;;;;;;;;;;5017740;28;20080;-83
2021/10/10 05:45:27;;;;;;;20.75;9.48;;;;;;;;;;5016517;28;20084;-82
2021/10/10 05:47:54;;;;;;;14.60;7.80;;;;;;;;;;4983212;28;20475;-83
2021/10/10 05:50:21;;;;;;;18.80;10.10;;;;;;;;;;5017349;28;20050;-83
2021/10/10 05:52:47;;;;;;;18.08;10.25;;;;;;;;;;5015714;28;20167;-82
2021/10/10 05:55:17;;;;;;;20.40;8.98;;;;;;;;;;5016770;28;20053;-82
2021/10/10 05:57:45;;;;;;;18.83;8.75;;;;;;;;;;4997394;28;20108;-83
2021/10/10 06:00:14;;;;;;;23.85;11.10;;;;;;;;;;4997294;28;20637;-82
2021/10/10 06:02:42;;;;;;;17.95;8.40;;;;;;;;;;5017445;28;20046;-83
2021/10/10 06:05:09;;;;;;;18.50;8.38;;;;;;;;;;5017370;28;20041;-83
2021/10/10 06:07:36;;;;;;;18.45;9.48;;;;;;;;;;5017086;28;20046;-82
2021/10/10 06:10:03;;;;;;;19.42;9.85;;;;;;;;;;4999563;28;20372;-82
2021/10/10 06:12:31;;;;;;;24.23;11.00;;;;;;;;;;5016475;28;20049;-82
2021/10/10 06:15:00;;;;;;;19.33;11.18;;;;;;;;;;5017343;28;20057;-83
2021/10/10 06:17:26;;;;;;;21.60;12.02;;;;;;;;;;5017381;28;20053;-83
2021/10/10 06:19:53;;;;;;;18.10;10.20;;;;;;;;;;5014848;28;20045;-84
2021/10/10 06:22:20;;;;;;;20.23;10.73;;;;;;;;;;5015333;28;20068;-83
2021/10/10 06:24:47;;;;;;;17.98;9.32;;;;;;;;;;5016231;28;20093;-83
2021/10/10 06:27:15;;;;;;;18.83;9.25;;;;;;;;;;5015182;28;20045;-83
2021/10/10 06:29:42;;;;;;;20.30;10.55;;;;;;;;;;5015439;28;20385;-83
2021/10/10 06:32:09;;;;;;;17.85;9.57;;;;;;;;;;5015200;28;20041;-82
2021/10/10 06:34:36;;;;;;;18.90;9.80;;;;;;;;;;5016052;28;20050;-83
2021/10/10 06:37:06;;;;;;;19.35;10.88;;;;;;;;;;5014340;28;20092;-83
2021/10/10 06:39:38;;;;;;;20.55;11.27;;;;;;;;;;5015725;28;20487;-83
2021/10/10 06:42:05;;;;;;;20.55;9.77;;;;;;;;;;5016414;28;20041;-83
2021/10/10 06:44:31;;;;;;;18.50;10.13;;;;;;;;;;5017477;28;20073;-83
2021/10/10 06:46:58;;;;;;;22.42;10.75;;;;;;;;;;5016266;28;20041;-82
2021/10/10 06:49:26;;;;;;;25.40;12.00;;;;;;;;;;5015178;28;20038;-82
2021/10/10 06:51:54;;;;;;;28.88;15.32;;;;;;;;;;5017041;28;20041;-83
2021/10/10 06:54:21;;;;;;;25.70;14.27;;;;;;;;;;4999384;28;20042;-82
2021/10/10 06:56:48;;;;;;;28.42;14.18;;;;;;;;;;4999121;28;20045;-82
2021/10/10 06:59:15;;;;;;;29.80;13.40;;;;;;;;;;5016236;28;20367;-82
2021/10/10 07:01:44;;;;;;;20.92;11.35;;;;;;;;;;5016224;28;20046;-82
2021/10/10 07:04:10;;;;;;;22.33;11.50;;;;;;;;;;5015432;28;20045;-82
2021/10/10 07:06:38;;;;;;;25.75;13.32;;;;;;;;;;5016192;28;20049;-82
2021/10/10 07:09:05;;;;;;;22.33;12.40;;;;;;;;;;5015301;28;20038;-82
2021/10/10 07:11:31;;;;;;;23.60;13.75;;;;;;;;;;5014404;28;20088;-83
2021/10/10 07:13:58;;;;;;;20.48;13.27;;;;;;;;;;5015919;28;20042;-83
2021/10/10 07:16:27;;;;;;;22.33;11.82;;;;;;;;;;4998926;28;20041;-82
2021/10/10 07:18:55;;;;;;;22.38;12.63;;;;;;;;;;5015963;28;20045;-82
2021/10/10 07:21:40;;;;;;;30.67;14.52;;;;;;;;;;5014151;28;20045;-82
2021/10/10 07:26:52;;;;;;;20.42;13.13;;;;;;;;;;4996095;28;20526;-82
2021/10/10 07:29:18;;;;;;;21.17;13.20;;;;;;;;;;4996319;28;20042;-82
2021/10/10 07:31:45;;;;;;;24.58;13.25;;;;;;;;;;5014613;28;20632;-82
2021/10/10 07:34:12;;;;;;;23.70;12.80;;;;;;;;;;5014177;28;20474;-82
2021/10/10 07:36:39;;;;;;;26.00;12.85;;;;;;;;;;5015117;28;20494;-82
2021/10/10 07:39:05;;;;;;;24.20;12.57;;;;;;;;;;5014087;28;20042;-82
2021/10/10 07:41:38;;;;;;;20.77;14.73;;;;;;;;;;5015604;28;20038;-82
2021/10/10 07:44:06;;;;;;;22.33;13.82;;;;;;;;;;5015709;28;20118;-82
2021/10/10 07:46:36;;;;;;;20.98;13.35;;;;;;;;;;5014167;28;20501;-82
2021/10/10 07:49:03;;;;;;;19.33;12.23;;;;;;;;;;5015311;28;20053;-83
2021/10/10 07:51:30;;;;;;;18.38;11.10;;;;;;;;;;5016008;28;20045;-81
2021/10/10 07:53:57;;;;;;;18.05;10.90;;;;;;;;;;5015231;28;20048;-83
2021/10/10 07:56:24;;;;;;;19.92;11.52;;;;;;;;;;5015587;28;20057;-82
2021/10/10 07:58:53;;;;;;;22.63;11.23;;;;;;;;;;4996866;28;20093;-82
2021/10/10 08:01:20;;;;;;;18.80;10.15;;;;;;;;;;5004114;28;20394;-84
2021/10/10 08:03:46;;;;;;;24.02;12.35;;;;;;;;;;5000439;28;20141;-83
2021/10/10 08:06:13;;;;;;;19.63;11.07;;;;;;;;;;5015065;28;20081;-83
2021/10/10 08:08:40;;;;;;;21.50;11.07;;;;;;;;;;5008553;28;20042;-82
2021/10/10 08:11:06;;;;;;;18.80;10.65;;;;;;;;;;5015327;28;20449;-83
2021/10/10 08:13:33;;;;;;;18.15;10.05;;;;;;;;;;4998755;28;20066;-81
2021/10/10 08:16:01;;;;;;;17.48;10.02;;;;;;;;;;5015695;28;20052;-82
2021/10/10 08:18:27;;;;;;;17.35;10.07;;;;;;;;;;5000371;28;20047;-83
2021/10/10 08:20:54;;;;;;;18.83;10.25;;;;;;;;;;5012093;28;20438;-83
2021/10/10 08:23:21;;;;;;;16.40;10.10;;;;;;;;;;5013431;28;20057;-81
2021/10/10 08:25:48;;;;;;;14.98;9.55;;;;;;;;;;5014837;28;20042;-83
2021/10/10 08:28:29;;;;;;;17.60;9.85;;;;;;;;;;5010267;28;20049;-83
2021/10/10 08:31:03;;;;;;;15.68;9.35;;;;;;;;;;4994793;28;20049;-82
2021/10/10 08:33:31;;;;;;;17.38;9.60;;;;;;;;;;5014158;28;20061;-82
2021/10/10 08:35:58;;;;;;;19.98;9.82;;;;;;;;;;5014868;28;20041;-83
2021/10/10 08:38:24;;;;;;;16.63;10.02;;;;;;;;;;5005375;28;20042;-82
2021/10/10 08:40:51;;;;;;;17.85;9.32;;;;;;;;;;5015066;28;20046;-85
2021/10/10 08:43:21;;;;;;;17.15;9.98;;;;;;;;;;5017552;28;20455;-83
2021/10/10 08:45:49;;;;;;;16.65;9.40;;;;;;;;;;5018537;28;20054;-84
2021/10/10 08:48:18;;;;;;;16.35;9.52;;;;;;;;;;5021475;28;20057;-82
2021/10/10 08:50:48;;;;;;;18.05;9.27;;;;;;;;;;5021797;28;20050;-84
2021/10/10 08:53:20;;;;;;;21.58;11.10;;;;;;;;;;5018470;28;20042;-82
2021/10/10 08:55:46;;;;;;;14.93;9.35;;;;;;;;;;5018497;28;20057;-82
2021/10/10 08:58:16;;;;;;;16.27;9.85;;;;;;;;;;5017826;28;20423;-83
2021/10/10 09:00:50;;;;;;;19.15;10.95;;;;;;;;;;5015669;28;20073;-83
2021/10/10 09:03:17;;;;;;;16.05;9.45;;;;;;;;;;5019443;28;20057;-82
2021/10/10 09:05:43;;;;;;;13.25;8.90;;;;;;;;;;5019789;28;20038;-83
2021/10/10 09:08:11;;;;;;;14.40;10.02;;;;;;;;;;5019562;28;20042;-82
2021/10/10 09:10:38;;;;;;;15.48;10.10;;;;;;;;;;5019907;28;20568;-83
2021/10/10 09:13:06;;;;;;;16.17;9.63;;;;;;;;;;5018486;28;20137;-83
2021/10/10 09:15:34;;;;;;;18.45;9.98;;;;;;;;;;5019276;28;20052;-82
2021/10/10 09:18:03;;;;;;;19.30;11.40;;;;;;;;;;5018814;28;20045;-83
2021/10/10 09:20:32;;;;;;;17.85;9.88;;;;;;;;;;5018417;28;20049;-83
2021/10/10 09:23:02;;;;;;;20.00;9.70;;;;;;;;;;5012527;28;20053;-84
2021/10/10 09:25:54;;;;;;;14.80;9.00;;;;;;;;;;5018463;28;20041;-83
2021/10/10 09:28:22;;;;;;;16.30;9.05;;;;;;;;;;5019425;28;20045;-84
2021/10/10 09:30:53;;;;;;;14.50;9.02;;;;;;;;;;5018739;28;20062;-84
2021/10/10 09:33:22;;;;;;;19.83;10.13;;;;;;;;;;5016994;28;20046;-83
2021/10/10 09:36:01;;;;;;;15.00;8.40;;;;;;;;;;5018229;28;20363;-84
2021/10/10 09:38:28;;;;;;;17.60;9.25;;;;;;;;;;5018647;28;20414;-83
2021/10/10 09:41:16;;;;;;;15.05;8.65;;;;;;;;;;5016449;28;20069;-83
2021/10/10 09:44:05;;;;;;;13.45;8.95;;;;;;;;;;4997400;28;20050;-81
2021/10/10 09:46:31;;;;;;;17.40;9.02;;;;;;;;;;5018068;28;20042;-84
2021/10/10 09:48:59;;;;;;;14.02;8.98;;;;;;;;;;5016198;28;20141;-83
2021/10/10 09:51:32;;;;;;;15.30;9.00;;;;;;;;;;5017855;28;20068;-83
2021/10/10 09:54:08;;;;;;;15.75;9.68;;;;;;;;;;5016689;28;20033;-83
2021/10/10 09:56:36;;;;;;;17.13;9.45;;;;;;;;;;5013904;28;20052;-82
2021/10/10 09:59:03;;;;;;;15.85;9.35;;;;;;;;;;5007441;28;20053;-82
2021/10/10 10:01:30;;;;;;;14.88;8.75;;;;;;;;;;5016770;28;20057;-83
2021/10/10 10:04:02;;;;;;;13.80;9.13;;;;;;;;;;5017145;28;20050;-83
2021/10/10 10:06:31;;;;;;;13.55;7.90;;;;;;;;;;5016156;28;20065;-85
2021/10/10 10:09:02;;;;;;;14.73;9.48;;;;;;;;;;5015378;28;20046;-83
2021/10/10 10:11:31;;;;;;;16.17;9.43;;;;;;;;;;5015885;28;20068;-84
2021/10/10 10:14:01;;;;;;;15.00;8.85;;;;;;;;;;5016867;28;20041;-82
2021/10/10 10:16:28;;;;;;;18.33;9.63;;;;;;;;;;5017599;28;20073;-83
2021/10/10 10:18:55;;;;;;;14.20;8.40;;;;;;;;;;5017019;28;20050;-85
2021/10/10 10:21:22;;;;;;;17.58;9.05;;;;;;;;;;4999245;28;20049;-83
2021/10/10 10:23:50;;;;;;;13.63;8.60;;;;;;;;;;5016755;28;20541;-84
2021/10/10 10:26:18;;;;;;;16.48;8.27;;;;;;;;;;5017800;28;20060;-86
2021/10/10 10:28:45;;;;;;;13.45;8.48;;;;;;;;;;5016469;28;20506;-85
2021/10/10 10:31:14;;;;;;;12.20;7.88;;;;;;;;;;5015313;28;20042;-86
2021/10/10 10:33:41;;;;;;;11.68;7.75;;;;;;;;;;5014752;28;20057;-84
2021/10/10 10:36:08;;;;;;;15.02;7.85;;;;;;;;;;5014779;28;20549;-83
2021/10/10 10:38:46;;;;;;;12.93;7.75;;;;;;;;;;5013599;28;20052;-83
2021/10/10 10:41:47;;;;;;;13.43;7.97;;;;;;;;;;5014474;28;20046;-83
2021/10/10 10:44:39;;;;;;;12.85;8.27;;;;;;;;;;5015350;28;20052;-82
2021/10/10 10:47:08;;;;;;;15.55;8.30;;;;;;;;;;5002382;28;20106;-84
2021/10/10 10:50:00;;;;;;;12.82;7.60;;;;;;;;;;5014939;28;20049;-84
2021/10/10 10:52:28;;;;;;;14.73;8.50;;;;;;;;;;5006377;28;20574;-83
2021/10/10 10:54:56;;;;;;;11.13;7.28;;;;;;;;;;5016120;28;20076;-83
2021/10/10 10:57:30;;;;;;;12.32;8.68;;;;;;;;;;5014499;28;20045;-85
2021/10/10 11:00:03;;;;;;;14.15;7.82;;;;;;;;;;5000866;28;20045;-84
2021/10/10 11:03:20;;;;;;;13.45;7.28;;;;;;;;;;5005635;28;20045;-81
2021/10/10 11:05:49;;;;;;;11.27;7.40;;;;;;;;;;4992722;28;20461;-84
2021/10/10 11:08:38;;;;;;;11.88;7.53;;;;;;;;;;5016193;28;20418;-84
2021/10/10 11:11:19;;;;;;;12.63;7.70;;;;;;;;;;5016393;28;20045;-84
2021/10/10 11:13:48;;;;;;;15.35;7.78;;;;;;;;;;5016299;28;20042;-84
2021/10/10 11:16:16;;;;;;;11.10;7.57;;;;;;;;;;5015811;28;20042;-84
2021/10/10 11:18:46;;;;;;;10.57;7.32;;;;;;;;;;5016012;28;20042;-83
2021/10/10 11:21:14;;;;;;;13.10;8.18;;;;;;;;;;4998180;28;20136;-85
2021/10/10 11:23:42;;;;;;;12.02;7.60;;;;;;;;;;5015851;28;20057;-84
2021/10/10 11:26:11;;;;;;;17.75;7.15;;;;;;;;;;5011597;28;20038;-84
2021/10/10 11:28:44;;;;;;;10.57;6.85;;;;;;;;;;5007290;28;20041;-84
2021/10/10 11:31:13;;;;;;;17.13;8.23;;;;;;;;;;5016291;28;20104;-83
2021/10/10 11:33:42;;;;;;;11.85;7.20;;;;;;;;;;5015183;28;20115;-83
2021/10/10 11:36:10;;;;;;;13.52;7.15;;;;;;;;;;5016209;28;20482;-80
2021/10/10 11:38:51;;;;;;;12.18;8.05;;;;;;;;;;5016104;28;20037;-82
2021/10/10 11:41:18;;;;;;;13.00;7.88;;;;;;;;;;5016317;28;20084;-82
2021/10/10 11:44:01;;;;;;;15.10;7.03;;;;;;;;;;5016003;28;20422;-84
2021/10/10 11:46:38;;;;;;;11.25;6.65;;;;;;;;;;5017266;28;20050;-84
2021/10/10 11:49:21;;;;;;;10.13;6.50;;;;;;;;;;5016716;28;20042;-81
2021/10/10 11:51:51;;;;;;;12.85;6.50;;;;;;;;;;5017213;28;20038;-83
2021/10/10 11:54:26;;;;;;;11.40;7.07;;;;;;;;;;5015764;28;20042;-84
2021/10/10 11:56:57;;;;;;;11.23;7.57;;;;;;;;;;5016323;28;20052;-84
2021/10/10 11:59:23;;;;;;;11.85;6.65;;;;;;;;;;5015975;28;20037;-84
2021/10/10 12:01:52;;;;;;;15.38;7.75;;;;;;;;;;5014359;28;20045;-85
2021/10/10 12:04:19;;;;;;;10.05;7.30;;;;;;;;;;5005136;28;20046;-83
2021/10/10 12:06:46;;;;;;;11.48;6.72;;;;;;;;;;5016269;28;20046;-82
2021/10/10 12:09:15;;;;;;;9.77;6.55;;;;;;;;;;5014640;28;20042;-83
2021/10/10 12:11:42;;;;;;;10.35;6.38;;;;;;;;;;5016438;28;20049;-83
2021/10/10 12:14:09;;;;;;;9.70;5.75;;;;;;;;;;5014714;28;20046;-81
2021/10/10 12:16:43;;;;;;;13.00;6.38;;;;;;;;;;5016099;28;20046;-82
2021/10/10 12:19:11;;;;;;;9.63;6.68;;;;;;;;;;5017463;28;20058;-84
2021/10/10 12:21:46;;;;;;;12.90;6.32;;;;;;;;;;5019099;28;20052;-83
2021/10/10 12:24:17;;;;;;;8.93;5.53;;;;;;;;;;5020469;28;20045;-83
2021/10/10 12:26:50;;;;;;;10.40;5.53;;;;;;;;;;5019147;28;20042;-83
2021/10/10 12:29:24;;;;;;;10.52;6.30;;;;;;;;;;5019990;28;20085;-82
2021/10/10 12:31:51;;;;;;;11.07;6.82;;;;;;;;;;5019967;28;20494;-83
2021/10/10 12:34:18;;;;;;;11.93;6.72;;;;;;;;;;5019847;28;20065;-82
2021/10/10 12:36:46;;;;;;;8.95;5.90;;;;;;;;;;5019476;28;20045;-83
2021/10/10 12:39:15;;;;;;;11.63;6.28;;;;;;;;;;5018337;28;20118;-84
2021/10/10 12:41:42;;;;;;;10.15;6.32;;;;;;;;;;5018139;28;20081;-84
2021/10/10 12:44:15;;;;;;;10.30;5.78;;;;;;;;;;5018683;28;20458;-86
2021/10/10 12:46:55;;;;;;;8.52;5.55;;;;;;;;;;5019749;28;20505;-84
2021/10/10 12:49:29;;;;;;;9.45;5.72;;;;;;;;;;5020387;28;20042;-83
2021/10/10 12:51:59;;;;;;;11.20;6.55;;;;;;;;;;5019338;28;20070;-83
2021/10/10 12:54:28;;;;;;;8.35;5.40;;;;;;;;;;5019180;28;20042;-83
2021/10/10 12:56:59;;;;;;;8.93;5.78;;;;;;;;;;5018582;28;20041;-84
2021/10/10 12:59:26;;;;;;;9.70;4.80;;;;;;;;;;5018075;28;20079;-85
2021/10/10 13:01:53;;;;;;;8.63;4.85;;;;;;;;;;5016404;28;20053;-84
2021/10/10 13:04:20;;;;;;;10.68;5.63;;;;;;;;;;5010751;28;20501;-84
2021/10/10 13:06:47;;;;;;;11.25;5.63;;;;;;;;;;5016168;28;20056;-83
2021/10/10 13:09:16;;;;;;;9.02;4.85;;;;;;;;;;5016299;28;20042;-85
2021/10/10 13:11:44;;;;;;;9.40;4.90;;;;;;;;;;4996937;28;20049;-85
2021/10/10 13:14:11;;;;;;;8.32;4.88;;;;;;;;;;5017265;28;20053;-84
2021/10/10 13:16:41;;;;;;;12.98;5.90;;;;;;;;;;5019835;28;20046;-83
2021/10/10 13:19:18;;;;;;;11.43;5.80;;;;;;;;;;5019528;28;20045;-82
2021/10/10 13:21:47;;;;;;;11.07;5.68;;;;;;;;;;5019268;28;20533;-84
2021/10/10 13:24:14;;;;;;;7.80;5.38;;;;;;;;;;5019132;28;20041;-84
2021/10/10 13:26:41;;;;;;;8.50;5.28;;;;;;;;;;5018491;28;20049;-85
2021/10/10 13:29:14;;;;;;;9.40;5.93;;;;;;;;;;5018084;28;20046;-84
2021/10/10 13:31:41;;;;;;;9.57;5.22;;;;;;;;;;5008188;28;20128;-85
2021/10/10 13:34:07;;;;;;;12.48;5.45;;;;;;;;;;5017564;28;20038;-85
2021/10/10 13:36:35;;;;;;;9.00;6.13;;;;;;;;;;5018411;28;20045;-84
2021/10/10 13:39:02;;;;;;;8.32;5.60;;;;;;;;;;5019110;28;20133;-84
2021/10/10 13:41:31;;;;;;;9.32;5.78;;;;;;;;;;5018800;28;20114;-84
2021/10/10 13:44:14;;;;;;;13.20;6.28;;;;;;;;;;5018571;28;20649;-85
2021/10/10 13:46:42;;;;;;;8.27;5.13;;;;;;;;;;5013860;28;20046;-83
2021/10/10 13:49:09;;;;;;;9.55;5.80;;;;;;;;;;5017231;28;20045;-82
2021/10/10 13:51:36;;;;;;;7.68;4.88;;;;;;;;;;5015856;28;20042;-84
2021/10/10 13:54:04;;;;;;;7.57;5.25;;;;;;;;;;5016064;28;20410;-84
2021/10/10 13:56:31;;;;;;;8.13;4.50;;;;;;;;;;5016344;28;20092;-85
2021/10/10 13:58:59;;;;;;;7.18;4.90;;;;;;;;;;5015624;28;20049;-84
2021/10/10 14:01:26;;;;;;;9.75;5.25;;;;;;;;;;5015198;28;20045;-85
2021/10/10 14:03:55;;;;;;;7.15;5.10;;;;;;;;;;5014655;28;20046;-84
2021/10/10 14:06:24;;;;;;;9.77;6.50;;;;;;;;;;5014485;28;20450;-84
2021/10/10 14:08:51;;;;;;;9.30;6.18;;;;;;;;;;5016049;28;20475;-85
2021/10/10 14:11:19;;;;;;;9.15;5.93;;;;;;;;;;5014787;28;20046;-82
2021/10/10 14:13:49;;;;;;;8.57;4.95;;;;;;;;;;5016581;28;20060;-84
2021/10/10 14:16:20;;;;;;;9.00;5.25;;;;;;;;;;5015056;28;20049;-83
2021/10/10 14:18:47;;;;;;;7.43;4.55;;;;;;;;;;5015633;28;20042;-85
2021/10/10 14:21:15;;;;;;;9.82;4.78;;;;;;;;;;5016429;28;20046;-86
2021/10/10 14:23:42;;;;;;;9.27;4.60;;;;;;;;;;5016432;28;20049;-84
2021/10/10 14:26:09;;;;;;;7.30;4.65;;;;;;;;;;5015922;28;20049;-83
2021/10/10 14:28:36;;;;;;;7.43;4.43;;;;;;;;;;5015923;28;20042;-83
2021/10/10 14:31:05;;;;;;;8.23;4.88;;;;;;;;;;5015529;28;20103;-83
2021/10/10 14:33:33;;;;;;;8.00;4.78;;;;;;;;;;5014899;28;20041;-82
2021/10/10 14:35:59;;;;;;;8.25;4.03;;;;;;;;;;5014927;28;20049;-83
2021/10/10 14:38:28;;;;;;;6.43;4.57;;;;;;;;;;5014318;28;20458;-84
2021/10/10 14:41:03;;;;;;;10.02;4.70;;;;;;;;;;5014661;28;20046;-83
2021/10/10 14:43:35;;;;;;;6.75;4.00;;;;;;;;;;5013637;28;20042;-83